createdAt,value
2018-06-25T00:01:03.916Z,2.90
2018-06-25T00:03:07.999Z,3.10
2018-06-25T00:05:13.105Z,2.70
2018-06-25T00:07:17.573Z,3.03
2018-06-25T00:09:21.775Z,3.50
2018-06-25T00:11:28.344Z,3.00
2018-06-25T00:13:33.344Z,3.33
2018-06-25T00:15:43.197Z,3.33
2018-06-25T00:17:53.281Z,3.00
2018-06-25T00:20:00.308Z,3.20
2018-06-25T00:22:04.247Z,3.43
2018-06-25T00:24:11.394Z,3.33
2018-06-25T00:26:17.495Z,3.10
2018-06-25T00:28:24.240Z,3.67
2018-06-25T00:30:30.775Z,3.53
2018-06-25T00:32:37.664Z,3.90
2018-06-25T00:34:43.144Z,4.10
2018-06-25T00:36:46.702Z,3.90
2018-06-25T00:38:51.413Z,3.97
2018-06-25T00:40:55.491Z,3.90
2018-06-25T00:43:00.611Z,3.60
2018-06-25T00:45:07.686Z,3.60
2018-06-25T00:47:11.827Z,4.37
2018-06-25T00:49:15.948Z,4.43
2018-06-25T00:51:21.563Z,4.70
2018-06-25T00:53:27.528Z,4.63
2018-06-25T00:55:32.760Z,4.23
2018-06-25T00:57:37.955Z,4.57
2018-06-25T00:59:51.631Z,4.60
2018-06-25T01:01:56.700Z,4.33
2018-06-25T01:04:01.283Z,4.33
2018-06-25T01:06:05.484Z,4.60
2018-06-25T01:08:09.570Z,4.73
2018-06-25T01:10:16.993Z,4.70
2018-06-25T01:12:21.306Z,4.90
2018-06-25T01:14:25.854Z,5.07
2018-06-25T01:16:34.128Z,4.90
2018-06-25T01:18:38.970Z,5.10
2018-06-25T01:20:43.121Z,4.93
2018-06-25T01:22:48.551Z,4.37
2018-06-25T01:24:53.214Z,4.10
2018-06-25T01:27:03.808Z,4.70
2018-06-25T01:29:09.131Z,4.03
2018-06-25T01:31:13.915Z,4.37
2018-06-25T01:33:18.582Z,4.40
2018-06-25T01:35:25.924Z,3.93
2018-06-25T01:37:33.969Z,4.17
2018-06-25T01:39:39.686Z,4.63
2018-06-25T01:41:44.349Z,4.27
2018-06-25T01:43:48.943Z,4.30
2018-06-25T01:45:53.246Z,4.23
2018-06-25T01:47:58.699Z,4.30
2018-06-25T01:50:02.705Z,3.90
2018-06-25T01:52:06.868Z,3.97
2018-06-25T01:54:13.602Z,4.00
2018-06-25T01:56:17.544Z,3.57
2018-06-25T01:58:21.640Z,3.37
2018-06-25T02:00:25.789Z,4.07
2018-06-25T02:02:30.352Z,4.07
2018-06-25T02:04:34.431Z,3.93
2018-06-25T02:06:42.629Z,4.63
2018-06-25T02:08:47.243Z,4.83
2018-06-25T02:10:51.551Z,4.60
2018-06-25T02:12:56.012Z,4.83
2018-06-25T02:15:00.395Z,4.87
2018-06-25T02:17:05.342Z,4.47
2018-06-25T02:19:20.321Z,4.53
2018-06-25T02:21:24.825Z,4.97
2018-06-25T02:23:29.221Z,4.63
2018-06-25T02:25:33.752Z,4.67
2018-06-25T02:27:38.236Z,4.97
2018-06-25T02:29:42.663Z,6.00
2018-06-25T02:31:49.439Z,5.63
2018-06-25T02:33:54.192Z,5.43
2018-06-25T02:35:58.739Z,5.40
2018-06-25T02:38:02.848Z,5.70
2018-06-25T02:40:06.962Z,5.73
2018-06-25T02:42:11.767Z,5.17
2018-06-25T02:44:17.022Z,4.77
2018-06-25T02:46:21.098Z,4.90
2018-06-25T02:48:25.070Z,4.80
2018-06-25T02:50:32.199Z,5.17
2018-06-25T02:52:36.235Z,4.90
2018-06-25T02:54:40.330Z,5.10
2018-06-25T02:56:55.247Z,5.47
2018-06-25T02:59:00.283Z,5.03
2018-06-25T03:01:04.189Z,5.10
2018-06-25T03:03:08.574Z,5.50
2018-06-25T03:05:12.674Z,5.30
2018-06-25T03:07:16.623Z,5.80
2018-06-25T03:09:23.134Z,5.47
2018-06-25T03:11:27.034Z,5.50
2018-06-25T03:13:31.429Z,5.60
2018-06-25T03:15:37.089Z,5.63
2018-06-25T03:17:41.180Z,5.40
2018-06-25T03:19:45.996Z,5.73
2018-06-25T03:21:51.923Z,5.83
2018-06-25T03:23:55.913Z,5.63
2018-06-25T03:25:59.839Z,6.00
2018-06-25T03:28:03.838Z,6.40
2018-06-25T03:30:07.890Z,6.43
2018-06-25T03:32:11.932Z,6.73
2018-06-25T03:34:20.132Z,6.60
2018-06-25T03:36:24.610Z,6.80
2018-06-25T03:38:29.817Z,7.10
2018-06-25T03:40:34.420Z,6.93
2018-06-25T03:42:38.755Z,6.77
2018-06-25T03:44:44.411Z,7.17
2018-06-25T03:46:54.292Z,6.03
2018-06-25T03:48:58.355Z,7.10
2018-06-25T03:51:02.492Z,7.10
2018-06-25T03:53:06.822Z,6.17
2018-06-25T03:55:10.872Z,6.00
2018-06-25T03:57:14.960Z,6.87
2018-06-25T03:59:19.377Z,5.93
2018-06-25T04:01:24.208Z,6.00
2018-06-25T04:03:28.991Z,5.40
2018-06-25T04:05:33.854Z,6.40
2018-06-25T04:07:38.148Z,5.80
2018-06-25T04:09:42.224Z,6.27
2018-06-25T04:11:46.512Z,6.07
2018-06-25T04:13:50.416Z,5.53
2018-06-25T04:15:54.338Z,6.20
2018-06-25T04:17:58.262Z,5.77
2018-06-25T04:20:02.443Z,5.80
2018-06-25T04:24:18.878Z,5.50
2018-06-25T04:26:25.871Z,5.30
2018-06-25T04:28:29.744Z,5.23
2018-06-25T04:30:40.256Z,5.30
2018-06-25T04:32:44.665Z,4.70
2018-06-25T04:34:49.435Z,4.77
2018-06-25T04:36:57.386Z,4.93
2018-06-25T04:39:01.254Z,4.70
2018-06-25T04:41:05.234Z,3.97
2018-06-25T04:43:09.766Z,4.40
2018-06-25T04:45:15.823Z,4.60
2018-06-25T04:47:19.727Z,4.23
2018-06-25T04:49:24.001Z,4.50
2018-06-25T04:51:27.838Z,4.23
2018-06-25T04:53:32.082Z,4.40
2018-06-25T04:55:36.557Z,4.33
2018-06-25T04:57:40.603Z,3.80
2018-06-25T04:59:44.553Z,3.47
2018-06-25T05:01:49.014Z,3.63
2018-06-25T05:03:52.965Z,3.33
2018-06-25T05:05:57.209Z,3.60
2018-06-25T05:08:01.206Z,3.80
2018-06-25T05:10:06.697Z,3.63
2018-06-25T05:12:10.610Z,3.73
2018-06-25T05:14:14.947Z,3.50
2018-06-25T05:16:18.902Z,3.87
2018-06-25T05:18:23.264Z,3.77
2018-06-25T05:20:30.555Z,3.50
2018-06-25T05:22:34.435Z,3.33
2018-06-25T05:24:38.311Z,3.20
2018-06-25T05:26:45.979Z,3.13
2018-06-25T05:28:53.868Z,3.00
2018-06-25T05:30:57.821Z,3.13
2018-06-25T05:33:01.922Z,2.50
2018-06-25T05:35:05.859Z,2.27
2018-06-25T05:37:09.975Z,2.27
2018-06-25T05:39:13.878Z,2.10
2018-06-25T05:41:18.303Z,2.20
2018-06-25T05:43:22.435Z,2.10
2018-06-25T05:45:26.807Z,2.10
2018-06-25T05:47:31.069Z,2.10
2018-06-25T05:49:35.756Z,1.90
2018-06-25T05:51:43.218Z,2.03
2018-06-25T05:53:48.215Z,2.60
2018-06-25T05:55:51.740Z,2.50
2018-06-25T05:57:58.205Z,2.20
2018-06-25T06:02:11.554Z,2.40
2018-06-25T06:04:15.890Z,2.60
2018-06-25T06:06:19.775Z,2.40
2018-06-25T06:08:24.404Z,2.30
2018-06-25T06:10:30.160Z,2.60
2018-06-25T06:12:34.192Z,3.10
2018-06-25T06:14:38.151Z,2.37
2018-06-25T06:16:49.040Z,2.23
2018-06-25T06:18:53.130Z,2.40
2018-06-25T06:20:57.151Z,2.13
2018-06-25T06:23:01.645Z,2.03
2018-06-25T06:25:05.634Z,2.00
2018-06-25T06:27:09.489Z,1.93
2018-06-25T06:29:14.144Z,1.80
2018-06-25T06:31:20.331Z,1.80
2018-06-25T06:33:24.224Z,2.07
2018-06-25T06:35:30.967Z,2.17
2018-06-25T06:37:36.195Z,1.77
2018-06-25T06:39:40.138Z,1.63
2018-06-25T06:41:46.399Z,1.80
2018-06-25T06:43:50.488Z,2.53
2018-06-25T06:45:58.645Z,1.50
2018-06-25T06:48:03.881Z,1.40
2018-06-25T06:50:09.345Z,1.27
2018-06-25T06:52:15.152Z,1.23
2018-06-25T06:54:24.903Z,1.30
2018-06-25T06:56:29.695Z,1.30
2018-06-25T06:58:33.697Z,1.33
2018-06-25T07:00:40.506Z,1.30
2018-06-25T07:02:44.422Z,2.80
2018-06-25T07:04:52.480Z,2.10
2018-06-25T07:07:00.380Z,1.40
2018-06-25T07:09:07.943Z,1.30
2018-06-25T07:11:26.827Z,1.20
2018-06-25T07:13:32.071Z,1.33
2018-06-25T07:15:37.481Z,1.40
2018-06-25T07:17:43.303Z,1.50
2018-06-25T07:19:48.406Z,1.40
2018-06-25T07:21:52.955Z,1.20
2018-06-25T07:23:58.534Z,1.17
2018-06-25T07:26:05.488Z,1.10
2018-06-25T07:28:10.240Z,1.20
2018-06-25T07:30:17.609Z,1.40
2018-06-25T07:32:25.505Z,1.50
2018-06-25T07:34:30.777Z,1.10
2018-06-25T07:36:34.799Z,1.37
2018-06-25T07:38:53.962Z,1.40
2018-06-25T07:41:18.439Z,1.23
2018-06-25T07:43:24.193Z,1.47
2018-06-25T07:45:31.793Z,1.43
2018-06-25T07:47:35.799Z,1.23
2018-06-25T07:49:40.639Z,1.70
2018-06-25T07:51:48.081Z,1.40
2018-06-25T07:53:52.171Z,1.20
2018-06-25T07:55:56.334Z,1.27
2018-06-25T07:58:02.918Z,1.27
2018-06-25T08:00:09.515Z,1.23
2018-06-25T08:02:14.448Z,1.33
2018-06-25T08:04:19.991Z,1.30
2018-06-25T08:06:24.411Z,1.00
2018-06-25T08:08:28.482Z,0.90
2018-06-25T08:10:32.818Z,0.80
2018-06-25T08:12:36.791Z,1.10
2018-06-25T08:14:40.746Z,0.97
2018-06-25T08:16:45.206Z,0.90
2018-06-25T08:18:49.164Z,0.80
2018-06-25T08:20:53.211Z,0.87
2018-06-25T08:22:59.155Z,0.80
2018-06-25T08:25:04.203Z,0.80
2018-06-25T08:27:11.614Z,0.70
2018-06-25T08:29:17.413Z,1.00
2018-06-25T08:31:21.619Z,0.70
2018-06-25T08:33:25.610Z,0.77
2018-06-25T08:35:34.002Z,0.80
2018-06-25T08:37:37.606Z,0.93
2018-06-25T08:39:41.540Z,0.90
2018-06-25T08:41:50.482Z,0.60
2018-06-25T08:43:54.554Z,0.80
2018-06-25T08:46:02.381Z,4.70
2018-06-25T08:48:12.674Z,1.27
2018-06-25T08:50:17.272Z,0.70
2018-06-25T08:52:21.349Z,1.17
2018-06-25T08:54:25.407Z,0.87
2018-06-25T08:56:29.941Z,0.80
2018-06-25T08:58:34.810Z,0.70
2018-06-25T09:00:39.403Z,0.70
2018-06-25T09:02:44.475Z,0.70
2018-06-25T09:04:48.546Z,0.70
2018-06-25T09:06:53.506Z,0.70
2018-06-25T09:08:58.123Z,0.80
2018-06-25T09:11:04.279Z,0.80
2018-06-25T09:13:13.278Z,0.63
2018-06-25T09:15:18.087Z,0.70
2018-06-25T09:17:22.827Z,0.77
2018-06-25T09:19:29.385Z,0.60
2018-06-25T09:21:34.969Z,0.70
2018-06-25T09:23:39.583Z,0.60
2018-06-25T09:25:47.734Z,0.80
2018-06-25T09:27:51.767Z,0.80
2018-06-25T09:29:56.833Z,0.70
2018-06-25T09:32:07.180Z,0.90
2018-06-25T09:34:21.609Z,0.50
2018-06-25T09:36:30.227Z,1.00
2018-06-25T09:38:37.459Z,0.63
2018-06-25T09:40:43.507Z,0.67
2018-06-25T09:42:52.468Z,0.70
2018-06-25T09:44:58.883Z,0.70
2018-06-25T09:47:07.748Z,0.67
2018-06-25T09:49:12.835Z,0.70
2018-06-25T09:51:20.400Z,0.90
2018-06-25T09:53:25.679Z,0.70
2018-06-25T09:55:31.323Z,0.70
2018-06-25T09:57:41.045Z,0.70
2018-06-25T09:59:48.237Z,0.80
2018-06-25T10:01:53.348Z,0.70
2018-06-25T10:04:10.658Z,0.70
2018-06-25T10:06:15.012Z,0.50
2018-06-25T10:08:22.009Z,1.00
2018-06-25T10:10:28.670Z,0.70
2018-06-25T10:12:34.190Z,0.80
2018-06-25T10:14:38.373Z,0.90
2018-06-25T10:16:43.650Z,0.70
2018-06-25T10:18:49.079Z,0.90
2018-06-25T10:20:53.639Z,0.70
2018-06-25T10:22:59.569Z,0.80
2018-06-25T10:25:04.451Z,0.70
2018-06-25T10:27:10.756Z,1.30
2018-06-25T10:29:26.983Z,0.70
2018-06-25T10:31:32.742Z,0.73
2018-06-25T10:33:43.218Z,0.80
2018-06-25T10:35:49.506Z,0.80
2018-06-25T10:37:54.748Z,1.03
2018-06-25T10:39:59.405Z,0.87
2018-06-25T10:42:05.224Z,0.70
2018-06-25T10:44:11.031Z,0.70
2018-06-25T10:46:17.601Z,0.70
2018-06-25T10:48:23.428Z,0.80
2018-06-25T10:50:28.787Z,0.60
2018-06-25T10:52:37.451Z,0.77
2018-06-25T10:54:42.355Z,0.80
2018-06-25T10:56:49.963Z,1.13
2018-06-25T10:58:54.654Z,0.80
2018-06-25T11:00:59.318Z,0.70
2018-06-25T11:03:07.331Z,0.87
2018-06-25T11:05:12.379Z,0.80
2018-06-25T11:07:31.030Z,1.57
2018-06-25T11:09:38.102Z,1.00
2018-06-25T11:11:42.094Z,0.83
2018-06-25T11:13:48.332Z,1.00
2018-06-25T11:15:53.452Z,0.90
2018-06-25T11:18:02.329Z,0.90
2018-06-25T11:20:07.070Z,0.60
2018-06-25T11:22:25.782Z,0.70
2018-06-25T11:24:31.671Z,0.80
2018-06-25T11:26:50.840Z,0.60
2018-06-25T11:28:57.507Z,1.10
2018-06-25T11:31:03.355Z,0.80
2018-06-25T11:33:13.994Z,1.10
2018-06-25T11:35:20.516Z,0.90
2018-06-25T11:37:26.186Z,0.87
2018-06-25T11:39:34.435Z,0.70
2018-06-25T11:41:41.159Z,0.70
2018-06-25T11:43:47.737Z,0.77
2018-06-25T11:45:51.672Z,0.73
2018-06-25T11:47:55.221Z,0.90
2018-06-25T11:50:04.588Z,0.83
2018-06-25T11:52:12.893Z,0.80
2018-06-25T11:54:19.698Z,0.80
2018-06-25T11:56:24.684Z,0.80
2018-06-25T11:58:30.728Z,0.73
2018-06-25T12:00:35.779Z,0.70
2018-06-25T12:02:41.564Z,0.70
2018-06-25T12:04:47.312Z,0.87
2018-06-25T12:06:51.203Z,0.70
2018-06-25T12:08:55.722Z,0.80
2018-06-25T12:11:01.995Z,0.70
2018-06-25T12:13:07.180Z,0.70
2018-06-25T12:15:30.097Z,0.67
2018-06-25T12:17:38.161Z,0.80
2018-06-25T12:19:43.027Z,0.80
2018-06-25T12:21:47.288Z,0.90
2018-06-25T12:23:51.730Z,0.90
2018-06-25T12:25:59.720Z,0.60
2018-06-25T12:28:06.319Z,0.70
2018-06-25T12:30:13.663Z,0.70
2018-06-25T12:32:20.843Z,0.70
2018-06-25T12:34:25.009Z,0.67
2018-06-25T12:36:29.826Z,0.63
2018-06-25T12:38:34.463Z,0.70
2018-06-25T12:40:42.754Z,0.73
2018-06-25T12:42:48.178Z,0.70
2018-06-25T12:44:52.787Z,0.80
2018-06-25T12:46:57.262Z,0.57
2018-06-25T12:49:03.689Z,0.83
2018-06-25T12:51:07.823Z,0.77
2018-06-25T12:53:14.394Z,0.80
2018-06-25T12:55:20.191Z,0.70
2018-06-25T12:57:24.834Z,0.70
2018-06-25T12:59:29.982Z,0.70
2018-06-25T13:01:35.776Z,0.70
2018-06-25T13:03:41.957Z,0.53
2018-06-25T13:05:50.000Z,0.77
2018-06-25T13:07:54.781Z,1.00
2018-06-25T13:09:58.895Z,0.80
2018-06-25T13:12:05.183Z,0.70
2018-06-25T13:14:10.919Z,0.70
2018-06-25T13:16:16.457Z,0.70
2018-06-25T13:18:24.690Z,0.63
2018-06-25T13:20:31.205Z,0.60
2018-06-25T13:22:36.559Z,0.70
2018-06-25T13:24:44.830Z,0.68
2018-06-25T13:26:51.538Z,0.80
2018-06-25T13:28:57.939Z,0.62
2018-06-25T13:31:03.214Z,0.80
2018-06-25T13:33:09.047Z,0.70
2018-06-25T13:35:13.978Z,0.70
2018-06-25T13:37:18.948Z,0.70
2018-06-25T13:39:24.400Z,0.78
2018-06-25T13:41:34.002Z,0.80
2018-06-25T13:43:39.811Z,0.70
2018-06-25T13:45:44.295Z,3.95
2018-06-25T13:47:49.636Z,0.80
2018-06-25T13:50:04.325Z,0.80
2018-06-25T13:52:09.646Z,1.00
2018-06-25T13:54:19.936Z,1.00
2018-06-25T13:56:34.753Z,0.60
2018-06-25T13:58:49.740Z,0.60
2018-06-25T14:00:58.171Z,0.80
2018-06-25T14:03:06.276Z,0.80
2018-06-25T14:05:21.539Z,0.70
2018-06-25T14:07:33.746Z,0.90
2018-06-25T14:09:37.698Z,0.68
2018-06-25T14:11:41.956Z,0.78
2018-06-25T14:14:04.010Z,0.90
2018-06-25T14:16:33.682Z,0.80
2018-06-25T14:18:41.596Z,0.70
2018-06-25T14:20:50.734Z,0.75
2018-06-25T14:22:54.649Z,0.70
2018-06-25T14:25:00.079Z,0.65
2018-06-25T14:27:12.430Z,0.70
2018-06-25T14:29:21.565Z,0.60
2018-06-25T14:31:28.314Z,0.88
2018-06-25T14:33:38.108Z,0.68
2018-06-25T14:35:45.511Z,0.70
2018-06-25T14:37:49.778Z,0.80
2018-06-25T14:40:00.997Z,0.70
2018-06-25T14:42:06.616Z,0.70
2018-06-25T14:44:11.035Z,0.80
2018-06-25T14:46:16.255Z,0.70
2018-06-25T14:48:22.078Z,0.70
2018-06-25T14:50:35.962Z,0.60
2018-06-25T14:52:45.651Z,0.90
2018-06-25T14:54:50.118Z,0.95
2018-06-25T14:56:54.247Z,0.80
2018-06-25T14:58:58.470Z,0.80
2018-06-25T15:01:03.244Z,0.70
2018-06-25T15:03:10.783Z,0.80
2018-06-25T15:05:17.271Z,0.90
2018-06-25T15:07:25.336Z,0.60
2018-06-25T15:09:30.280Z,0.98
2018-06-25T15:11:35.986Z,0.98
2018-06-25T15:13:42.602Z,0.80
2018-06-25T15:15:47.551Z,0.80
2018-06-25T15:17:54.424Z,0.90
2018-06-25T15:19:59.604Z,1.00
2018-06-25T15:22:05.346Z,1.10
2018-06-25T15:24:13.460Z,0.77
2018-06-25T15:26:17.401Z,0.90
2018-06-25T15:28:22.885Z,1.00
2018-06-25T15:30:36.618Z,0.90
2018-06-25T15:32:41.940Z,1.10
2018-06-25T15:34:46.748Z,0.93
2018-06-25T15:36:52.896Z,1.00
2018-06-25T15:39:02.351Z,0.90
2018-06-25T15:41:08.351Z,1.00
2018-06-25T15:43:14.343Z,1.00
2018-06-25T15:45:18.250Z,0.85
2018-06-25T15:47:24.378Z,0.90
2018-06-25T15:49:29.824Z,0.93
2018-06-25T15:51:33.962Z,1.70
2018-06-25T15:53:39.014Z,1.00
2018-06-25T15:55:45.048Z,1.50
2018-06-25T15:57:49.090Z,1.20
2018-06-25T15:59:53.175Z,0.90
2018-06-25T16:01:57.279Z,1.10
2018-06-25T16:04:01.252Z,1.10
2018-06-25T16:06:05.388Z,1.57
2018-06-25T16:08:11.214Z,1.27
2018-06-25T16:10:16.165Z,1.40
2018-06-25T16:12:20.345Z,1.00
2018-06-25T16:14:29.000Z,1.33
2018-06-25T16:16:38.017Z,1.40
2018-06-25T16:18:42.252Z,1.60
2018-06-25T16:20:48.438Z,1.53
2018-06-25T16:22:54.374Z,1.77
2018-06-25T16:25:00.455Z,1.77
2018-06-25T16:27:09.266Z,1.63
2018-06-25T16:29:21.266Z,2.03
2018-06-25T16:31:28.009Z,1.53
2018-06-25T16:33:37.530Z,1.70
2018-06-25T16:35:43.390Z,1.50
2018-06-25T16:37:49.137Z,1.33
2018-06-25T16:39:53.737Z,1.47
2018-06-25T16:42:00.241Z,1.47
2018-06-25T16:44:07.594Z,1.40
2018-06-25T16:46:13.742Z,1.60
2018-06-25T16:48:19.476Z,1.40
2018-06-25T16:50:24.041Z,1.47
2018-06-25T16:52:28.178Z,1.70
2018-06-25T16:54:34.754Z,1.90
2018-06-25T16:56:39.191Z,1.87
2018-06-25T16:58:44.774Z,2.10
2018-06-25T17:00:48.798Z,2.10
2018-06-25T17:02:54.515Z,2.00
2018-06-25T17:04:59.808Z,2.20
2018-06-25T17:07:04.356Z,2.00
2018-06-25T17:09:12.636Z,2.03
2018-06-25T17:11:17.181Z,1.93
2018-06-25T17:13:21.759Z,2.43
2018-06-25T17:15:27.608Z,2.53
2018-06-25T17:17:36.931Z,2.60
2018-06-25T17:19:41.756Z,2.73
2018-06-25T17:21:48.392Z,3.30
2018-06-25T17:23:54.303Z,2.87
2018-06-25T17:25:59.394Z,2.80
2018-06-25T17:30:14.743Z,3.20
2018-06-25T17:32:42.470Z,3.23
2018-06-25T17:34:48.226Z,3.40
2018-06-25T17:36:56.287Z,3.53
2018-06-25T17:39:02.667Z,3.63
2018-06-25T17:41:07.828Z,3.53
2018-06-25T17:43:15.014Z,4.57
2018-06-25T17:45:18.517Z,3.63
2018-06-25T17:47:24.395Z,3.83
2018-06-25T17:49:33.166Z,3.80
2018-06-25T17:51:36.666Z,4.13
2018-06-25T17:53:47.557Z,4.10
2018-06-25T17:55:53.178Z,4.07
2018-06-25T17:57:58.703Z,4.40
2018-06-25T18:00:06.022Z,4.80
2018-06-25T18:02:11.842Z,4.60
2018-06-25T18:04:17.493Z,4.50
2018-06-25T18:06:27.370Z,3.97
2018-06-25T18:08:33.495Z,4.80
2018-06-25T18:10:39.558Z,4.47
2018-06-25T18:12:49.659Z,4.20
2018-06-25T18:15:05.222Z,3.97
2018-06-25T18:17:10.955Z,5.10
2018-06-25T18:19:22.456Z,3.77
2018-06-25T18:21:29.396Z,4.07
2018-06-25T18:23:34.785Z,3.73
2018-06-25T18:25:41.285Z,3.77
2018-06-25T18:27:49.146Z,4.23
2018-06-25T18:29:56.219Z,3.60
2018-06-25T18:32:00.711Z,3.83
2018-06-25T18:34:04.922Z,3.73
2018-06-25T18:36:09.449Z,3.63
2018-06-25T18:38:15.668Z,3.80
2018-06-25T18:40:23.680Z,3.97
2018-06-25T18:42:28.241Z,4.00
2018-06-25T18:44:34.783Z,3.93
2018-06-25T18:46:39.533Z,3.70
2018-06-25T18:48:46.734Z,4.30
2018-06-25T18:50:55.510Z,4.27
2018-06-25T18:53:00.770Z,4.07
2018-06-25T18:55:05.430Z,3.43
2018-06-25T18:57:11.396Z,3.60
2018-06-25T18:59:16.931Z,3.87
2018-06-25T19:01:24.915Z,3.47
2018-06-25T19:03:34.218Z,3.50
2018-06-25T19:05:43.770Z,4.10
2018-06-25T19:07:58.359Z,3.57
2018-06-25T19:10:08.972Z,3.57
2018-06-25T19:12:13.758Z,3.53
2018-06-25T19:14:20.675Z,3.83
2018-06-25T19:16:26.307Z,3.90
2018-06-25T19:18:35.531Z,3.80
2018-06-25T19:20:42.310Z,3.67
2018-06-25T19:22:47.123Z,3.67
2018-06-25T19:24:53.361Z,3.93
2018-06-25T19:26:57.306Z,4.00
2018-06-25T19:29:01.184Z,4.13
2018-06-25T19:31:07.385Z,3.90
2018-06-25T19:33:11.386Z,4.50
2018-06-25T19:35:17.392Z,3.97
2018-06-25T19:37:21.616Z,3.77
2018-06-25T19:39:25.483Z,3.83
2018-06-25T19:41:30.742Z,4.30
2018-06-25T19:43:37.782Z,3.73
2018-06-25T19:45:41.715Z,4.00
2018-06-25T19:47:48.987Z,4.17
2018-06-25T19:49:56.212Z,4.00
2018-06-25T19:52:02.423Z,3.73
2018-06-25T19:54:06.011Z,4.30
2018-06-25T19:56:12.986Z,4.17
2018-06-25T19:58:17.274Z,4.17
2018-06-25T20:00:23.394Z,4.23
2018-06-25T20:02:40.527Z,4.40
2018-06-25T20:04:45.382Z,3.87
2018-06-25T20:06:54.542Z,4.00
2018-06-25T20:09:12.791Z,3.97
2018-06-25T20:11:16.739Z,3.97
2018-06-25T20:13:22.599Z,3.40
2018-06-25T20:15:29.510Z,3.50
2018-06-25T20:17:35.488Z,4.23
2018-06-25T20:19:45.335Z,3.83
2018-06-25T20:21:51.494Z,4.03
2018-06-25T20:23:55.739Z,4.27
2018-06-25T20:26:01.112Z,3.90
2018-06-25T20:28:06.720Z,3.80
2018-06-25T20:30:15.215Z,4.10
2018-06-25T20:32:22.438Z,4.13
2018-06-25T20:34:31.450Z,4.40
2018-06-25T20:36:38.649Z,4.47
2018-06-25T20:38:43.772Z,4.27
2018-06-25T20:40:48.125Z,4.17
2018-06-25T20:42:53.717Z,4.83
2018-06-25T20:45:01.102Z,4.53
2018-06-25T20:47:10.164Z,6.07
2018-06-25T20:49:15.398Z,5.70
2018-06-25T20:51:23.809Z,6.40
2018-06-25T20:53:47.809Z,5.67
2018-06-25T20:55:53.920Z,5.67
2018-06-25T20:57:59.068Z,6.40
2018-06-25T21:05:24.434Z,6.50
2018-06-25T21:07:30.576Z,6.50
2018-06-25T21:09:37.605Z,6.57
2018-06-25T21:11:42.637Z,6.90
2018-06-25T21:13:52.589Z,6.77
2018-06-25T21:15:58.830Z,7.43
2018-06-25T21:18:05.256Z,7.87
2018-06-25T21:20:11.244Z,8.67
2018-06-25T21:22:14.829Z,8.83
2018-06-25T21:24:19.334Z,8.73
2018-06-25T21:26:25.386Z,9.07
2018-06-25T21:28:30.288Z,8.77
2018-06-25T21:30:35.366Z,9.50
2018-06-25T21:32:40.218Z,9.77
2018-06-25T21:34:47.556Z,9.57
2018-06-25T21:36:52.993Z,9.87
2018-06-25T21:38:58.574Z,9.93
2018-06-25T21:41:04.506Z,10.00
2018-06-25T21:43:10.679Z,9.70
2018-06-25T21:45:15.990Z,9.23
2018-06-25T21:47:20.589Z,9.57
2018-06-25T21:49:26.464Z,9.57
2018-06-25T21:51:30.685Z,9.33
2018-06-25T21:53:39.527Z,9.77
2018-06-25T21:55:46.644Z,9.33
2018-06-25T21:57:51.326Z,9.40
2018-06-25T22:00:00.542Z,9.30
2018-06-25T22:02:10.687Z,9.03
2018-06-25T22:04:16.195Z,9.23
2018-06-25T22:06:21.083Z,9.60
2018-06-25T22:08:25.951Z,9.43
2018-06-25T22:10:29.911Z,9.40
2018-06-25T22:12:36.075Z,8.93
2018-06-25T22:14:41.027Z,9.27
2018-06-25T22:16:45.724Z,9.70
2018-06-25T22:18:50.775Z,8.90
2018-06-25T22:20:57.240Z,8.53
2018-06-25T22:23:02.360Z,9.23
2018-06-25T22:25:06.674Z,9.70
2018-06-25T22:27:12.387Z,9.03
2018-06-25T22:29:16.514Z,9.30
2018-06-25T22:31:21.736Z,8.80
2018-06-25T22:33:27.477Z,9.17
2018-06-25T22:35:32.186Z,8.90
2018-06-25T22:37:37.187Z,8.93
2018-06-25T22:39:41.569Z,8.17
2018-06-25T22:41:46.535Z,8.50
2018-06-25T22:43:51.591Z,8.37
2018-06-25T22:46:01.066Z,7.87
2018-06-25T22:48:05.311Z,8.47
2018-06-25T22:50:09.245Z,7.63
2018-06-25T22:52:30.112Z,8.40
2018-06-25T22:54:46.102Z,7.80
2018-06-25T22:56:50.433Z,7.80
2018-06-25T22:58:59.581Z,8.10
2018-06-25T23:01:05.802Z,7.47
2018-06-25T23:03:10.766Z,6.73
2018-06-25T23:05:16.110Z,8.17
2018-06-25T23:07:20.138Z,7.97
2018-06-25T23:09:24.219Z,7.57
2018-06-25T23:11:30.211Z,7.97
2018-06-25T23:13:35.499Z,8.17
2018-06-25T23:15:39.750Z,7.90
2018-06-25T23:20:16.531Z,7.70
2018-06-25T23:22:22.978Z,7.97
2018-06-25T23:24:28.065Z,7.80
2018-06-25T23:26:32.507Z,8.27
2018-06-25T23:28:36.790Z,7.70
2018-06-25T23:30:46.003Z,8.73
2018-06-25T23:32:50.436Z,7.93
2018-06-25T23:34:54.634Z,8.53
2018-06-25T23:36:58.698Z,9.03
2018-06-25T23:39:02.243Z,8.23
2018-06-25T23:41:09.323Z,7.77
2018-06-25T23:43:13.727Z,8.07
2018-06-25T23:45:24.348Z,7.50
2018-06-25T23:47:31.606Z,7.80
2018-06-25T23:49:36.315Z,7.63
2018-06-25T23:51:41.095Z,7.57
2018-06-25T23:53:45.202Z,7.67
2018-06-25T23:55:51.843Z,7.13
2018-06-25T23:57:57.439Z,7.93
